Terminal Aerodrome Forecast
Issued by NWS Newport/Morehead City, NC

Home | Current Version | Previous Version | Text Only | Print | Product List | Glossary On
Versions: 1 2 3 4 5 6 7 8 9 10 11 12 13 14 15 16 17 18 19
000
FTUS42 KMHX 301200 AAA
TAFEWN
TAF AMD
KEWN 301213Z 3012/0112 02005KT P6SM SCT100
     FM301800 04005KT P6SM SCT050
     FM010800 01002KT 3SM BR SCT008=

USA.gov is the U.S. government's official web portal to all federal, state and local government web resources and services.